createdAt,value
2023-02-09T07:06:45.786Z,102949.78
2023-02-09T07:09:18.752Z,102955.55
2023-02-09T07:11:47.420Z,102953.23
2023-02-09T07:14:17.057Z,102950.48
2023-02-09T07:16:45.970Z,102950.36
2023-02-09T07:19:14.589Z,102946.73
2023-02-09T07:21:46.087Z,102944.73
2023-02-09T07:24:17.745Z,102941.37
2023-02-09T07:26:47.003Z,102936.14
2023-02-09T07:29:16.014Z,102935.16
2023-02-09T07:31:44.662Z,102937.31
2023-02-09T07:34:14.637Z,102936.54
2023-02-09T07:36:47.720Z,102935.73
2023-02-09T07:39:21.180Z,102932.27
2023-02-09T07:41:49.783Z,102928.17
2023-02-09T07:44:18.560Z,102925.98
2023-02-09T07:46:50.034Z,102923.34
2023-02-09T07:49:18.928Z,102917.63
2023-02-09T07:51:47.279Z,102921.38
2023-02-09T07:54:15.995Z,102924.34
2023-02-09T07:56:44.402Z,102922.95
2023-02-09T07:59:19.180Z,102913.48
2023-02-09T08:01:47.910Z,102907.98
2023-02-09T08:04:16.910Z,102905.87
2023-02-09T08:06:46.816Z,102909.25
2023-02-09T08:09:19.808Z,102902.77
2023-02-09T08:11:56.845Z,102906.39
2023-02-09T08:14:31.763Z,102910.89
2023-02-09T08:17:21.416Z,102908.16
2023-02-09T08:20:02.257Z,102913.50
2023-02-09T08:22:39.058Z,102916.54
2023-02-09T08:25:08.578Z,102913.12
2023-02-09T08:27:39.755Z,102905.11
2023-02-09T08:30:08.756Z,102901.88
2023-02-09T08:32:37.402Z,102904.80
2023-02-09T08:35:08.754Z,102905.33
2023-02-09T08:37:38.676Z,102906.73
2023-02-09T08:40:07.534Z,102903.46
2023-02-09T08:42:36.156Z,102896.95
2023-02-09T08:45:04.906Z,102895.13
2023-02-09T08:47:33.767Z,102896.00
2023-02-09T08:50:02.717Z,102892.58
2023-02-09T08:52:31.275Z,102892.33
2023-02-09T08:54:59.965Z,102885.05
2023-02-09T08:57:43.178Z,102882.91
2023-02-09T09:00:13.632Z,102876.85
2023-02-09T09:02:42.133Z,102878.67
2023-02-09T09:05:11.449Z,102872.34
2023-02-09T09:07:39.749Z,102874.34
2023-02-09T09:10:11.712Z,102871.59
2023-02-09T09:12:40.058Z,102871.33
2023-02-09T09:15:08.890Z,102870.09
2023-02-09T09:17:37.505Z,102866.70
2023-02-09T09:20:07.243Z,102862.81
2023-02-09T09:22:36.287Z,102861.99
2023-02-09T09:25:05.392Z,102859.10
2023-02-09T09:27:35.272Z,102862.15
2023-02-09T09:30:06.383Z,102857.93
2023-02-09T09:32:34.929Z,102859.09
2023-02-09T09:35:03.835Z,102854.96
2023-02-09T09:37:33.216Z,102863.20
2023-02-09T09:40:01.688Z,102863.41
2023-02-09T09:42:58.684Z,102858.45
2023-02-09T09:45:30.739Z,102862.18
2023-02-09T09:47:59.329Z,102864.53
2023-02-09T09:50:43.206Z,102865.88
2023-02-09T09:53:33.647Z,102868.95
2023-02-09T09:56:06.786Z,102863.55
2023-02-09T09:58:39.801Z,102861.70
2023-02-09T10:01:13.890Z,102861.86
2023-02-09T10:03:45.120Z,102855.80
2023-02-09T10:06:14.298Z,102852.23
2023-02-09T10:08:55.879Z,102851.05
2023-02-09T10:11:31.222Z,102849.33
2023-02-09T10:13:59.983Z,102842.67
2023-02-09T10:16:34.762Z,102835.95
2023-02-09T10:19:06.666Z,102831.79
2023-02-09T10:21:37.630Z,102829.02
2023-02-09T10:24:34.014Z,102826.61
2023-02-09T10:27:21.640Z,102815.88
2023-02-09T10:29:50.609Z,102807.83
2023-02-09T10:32:31.368Z,102800.30
2023-02-09T10:35:04.968Z,102796.88
2023-02-09T10:37:39.254Z,102793.05
2023-02-09T10:40:18.139Z,102798.32
2023-02-09T10:42:58.731Z,102804.35
2023-02-09T10:45:33.341Z,102801.15
2023-02-09T10:48:18.034Z,102801.42
2023-02-09T10:50:57.868Z,102796.58
2023-02-09T10:53:33.764Z,102791.94
2023-02-09T10:56:15.303Z,102786.25
2023-02-09T10:58:52.486Z,102776.68
2023-02-09T11:01:27.340Z,102769.75
2023-02-09T11:04:02.890Z,102765.85
2023-02-09T11:06:44.355Z,102761.90
2023-02-09T11:09:18.836Z,102758.51
2023-02-09T11:11:47.373Z,102754.02
2023-02-09T11:14:20.339Z,102746.81
2023-02-09T11:17:08.289Z,102746.90
2023-02-09T11:19:58.209Z,102743.38
2023-02-09T11:22:38.059Z,102740.70
2023-02-09T11:25:22.156Z,102733.85
2023-02-09T11:28:17.178Z,102725.99
2023-02-09T11:31:16.058Z,102723.47
2023-02-09T11:34:22.239Z,102716.25
2023-02-09T11:37:12.421Z,102712.46
2023-02-09T11:39:46.406Z,102705.58
2023-02-09T11:42:45.802Z,102705.91
2023-02-09T11:45:36.108Z,102698.26
2023-02-09T11:48:28.650Z,102693.16
2023-02-09T11:51:06.493Z,102686.95
2023-02-09T11:53:53.181Z,102679.16
2023-02-09T11:56:25.931Z,102672.58
2023-02-09T11:59:08.787Z,102676.24
2023-02-09T12:01:49.431Z,102666.16
2023-02-09T12:04:25.787Z,102659.99
2023-02-09T12:06:57.672Z,102649.54
2023-02-09T12:09:38.133Z,102641.38
2023-02-09T12:12:32.688Z,102635.65
2023-02-09T12:15:16.997Z,102623.16
2023-02-09T12:17:57.792Z,102621.17
2023-02-09T12:20:26.305Z,102613.55
2023-02-09T12:23:01.586Z,102606.21
2023-02-09T12:25:36.198Z,102601.42
2023-02-09T12:28:10.540Z,102595.33
2023-02-09T12:30:45.261Z,102595.11
2023-02-09T12:33:19.553Z,102579.70
2023-02-09T12:36:24.728Z,102571.53
2023-02-09T12:38:56.787Z,102555.09
2023-02-09T12:41:45.780Z,102542.95
2023-02-09T12:44:14.162Z,102532.19
2023-02-09T12:46:45.340Z,102527.07
2023-02-09T12:49:20.380Z,102526.36
2023-02-09T12:51:52.613Z,102507.95
2023-02-09T12:54:44.978Z,102500.11
2023-02-09T12:57:16.622Z,102493.89
2023-02-09T12:59:55.557Z,102488.38
2023-02-09T13:02:35.945Z,102483.11
2023-02-09T13:05:39.381Z,102480.79
2023-02-09T13:08:22.978Z,102474.88
2023-02-09T13:10:51.301Z,102467.89
2023-02-09T13:13:58.647Z,102469.52
2023-02-09T13:16:53.404Z,102473.84
2023-02-09T13:19:55.961Z,102476.40
2023-02-09T13:22:45.759Z,102485.02
2023-02-09T13:25:14.975Z,102484.27
2023-02-09T13:27:49.307Z,102483.70
2023-02-09T13:30:30.868Z,102480.14
2023-02-09T13:33:12.850Z,102478.05
2023-02-09T13:36:08.912Z,102479.34
2023-02-09T13:38:42.136Z,102481.02
2023-02-09T13:41:26.136Z,102478.90
2023-02-09T13:43:59.494Z,102474.23
2023-02-09T13:46:34.775Z,102467.08
2023-02-09T13:49:20.629Z,102463.42
2023-02-09T13:52:10.776Z,102474.33
2023-02-09T13:54:40.029Z,102468.73
2023-02-09T13:57:25.938Z,102473.89
2023-02-09T13:59:55.235Z,102475.34
2023-02-09T14:02:27.400Z,102477.27
2023-02-09T14:04:59.912Z,102479.06
2023-02-09T14:07:32.904Z,102485.20
2023-02-09T14:10:21.745Z,102482.36
2023-02-09T14:13:04.071Z,102482.70
2023-02-09T14:15:56.464Z,102487.00
2023-02-09T14:18:30.819Z,102480.86
2023-02-09T14:21:43.866Z,102472.33
2023-02-09T14:24:40.163Z,102478.80
2023-02-09T14:27:33.342Z,102475.45
2023-02-09T14:30:01.609Z,102471.33
2023-02-09T14:32:34.721Z,102472.20
2023-02-09T14:35:24.762Z,102477.73
2023-02-09T14:37:55.722Z,102476.63
2023-02-09T14:40:27.345Z,102475.35
2023-02-09T14:43:22.396Z,102461.99
2023-02-09T14:46:00.408Z,102457.16
2023-02-09T14:48:32.210Z,102452.19
2023-02-09T14:51:13.504Z,102447.83
2023-02-09T14:53:44.869Z,102438.60
2023-02-09T14:56:24.459Z,102441.73
2023-02-09T14:58:53.043Z,102438.07
2023-02-09T15:01:23.027Z,102439.80
2023-02-09T15:03:51.727Z,102442.61
2023-02-09T15:06:20.274Z,102434.93
2023-02-09T15:08:49.280Z,102437.58
2023-02-09T15:11:42.760Z,102440.67
2023-02-09T15:14:12.247Z,102450.18
2023-02-09T15:16:41.436Z,102447.52
2023-02-09T15:19:16.732Z,102444.39
2023-02-09T15:21:47.550Z,102437.68
2023-02-09T15:24:22.868Z,102440.33
2023-02-09T15:26:54.316Z,102443.79
2023-02-09T15:29:22.596Z,102446.67
2023-02-09T15:31:51.354Z,102449.42
2023-02-09T15:34:20.015Z,102450.20
2023-02-09T15:36:49.105Z,102456.80
2023-02-09T15:39:24.730Z,102464.83
2023-02-09T15:42:11.690Z,102466.86
2023-02-09T15:44:58.950Z,102466.14
2023-02-09T15:47:50.137Z,102459.43
2023-02-09T15:50:18.345Z,102464.96
2023-02-09T15:52:46.851Z,102470.85
2023-02-09T15:55:22.348Z,102481.65
2023-02-09T15:57:52.854Z,102483.05
2023-02-09T16:00:28.281Z,102482.02
2023-02-09T16:03:01.728Z,102482.02
2023-02-09T16:05:30.937Z,102482.63
2023-02-09T16:08:00.150Z,102486.65
2023-02-09T16:10:30.308Z,102481.48
2023-02-09T16:12:58.857Z,102479.30
2023-02-09T16:15:28.219Z,102474.80
2023-02-09T16:17:58.653Z,102472.17
2023-02-09T16:20:31.156Z,102475.41
2023-02-09T16:23:11.773Z,102477.73
2023-02-09T16:25:47.995Z,102473.61
2023-02-09T16:28:16.603Z,102475.49
2023-02-09T16:31:03.779Z,102470.27
2023-02-09T16:33:32.328Z,102463.63
2023-02-09T16:36:02.913Z,102464.02
2023-02-09T16:38:31.420Z,102466.45
2023-02-09T16:40:59.586Z,102456.58
2023-02-09T16:43:28.418Z,102437.91
2023-02-09T16:46:03.310Z,102423.98
2023-02-09T16:48:35.089Z,102426.91
2023-02-09T16:51:03.577Z,102429.62
2023-02-09T16:53:37.217Z,102425.65
2023-02-09T16:56:10.819Z,102411.16
2023-02-09T16:58:40.268Z,102403.83
2023-02-09T17:01:20.268Z,102408.23
2023-02-09T17:03:55.061Z,102399.59
2023-02-09T17:06:28.206Z,102395.98
2023-02-09T17:08:56.941Z,102394.90
2023-02-09T17:11:28.468Z,102396.81
2023-02-09T17:14:00.358Z,102396.26
2023-02-09T17:16:33.709Z,102395.55
2023-02-09T17:19:04.683Z,102399.55
2023-02-09T17:21:42.100Z,102399.71
2023-02-09T17:24:16.030Z,102403.64
2023-02-09T17:26:47.213Z,102409.39
2023-02-09T17:29:18.466Z,102424.14
2023-02-09T17:31:53.896Z,102428.74
2023-02-09T17:34:27.468Z,102423.15
2023-02-09T17:36:58.029Z,102415.31
2023-02-09T17:39:26.544Z,102418.89
2023-02-09T17:41:56.737Z,102415.38
2023-02-09T17:44:45.195Z,102413.23
2023-02-09T17:47:20.454Z,102417.12
2023-02-09T17:49:49.241Z,102426.02
2023-02-09T17:52:21.477Z,102431.05
2023-02-09T17:54:51.260Z,102425.27
2023-02-09T17:57:22.830Z,102421.09
2023-02-09T17:59:51.057Z,102413.86
2023-02-09T18:02:23.715Z,102407.00
2023-02-09T18:04:52.092Z,102406.23
2023-02-09T18:07:22.144Z,102399.98
2023-02-09T18:09:50.505Z,102392.13
2023-02-09T18:12:24.924Z,102396.71
2023-02-09T18:14:53.719Z,102383.96
2023-02-09T18:17:22.086Z,102371.34
2023-02-09T18:19:51.304Z,102366.05
2023-02-09T18:22:20.283Z,102376.45
2023-02-09T18:24:49.332Z,102376.56
2023-02-09T18:27:21.308Z,102362.29
2023-02-09T18:29:49.675Z,102346.17
2023-02-09T18:32:18.293Z,102344.44
2023-02-09T18:34:47.080Z,102349.05
2023-02-09T18:37:16.425Z,102354.17
2023-02-09T18:39:46.974Z,102340.39
2023-02-09T18:42:17.174Z,102325.48
2023-02-09T18:44:45.541Z,102319.39
2023-02-09T18:47:14.281Z,102323.56
2023-02-09T18:49:42.880Z,102311.28
2023-02-09T18:52:17.410Z,102308.10
2023-02-09T18:54:47.014Z,102299.83
2023-02-09T18:57:16.624Z,102302.60
2023-02-09T18:59:47.751Z,102309.77
2023-02-09T19:02:17.773Z,102307.80
2023-02-09T19:04:46.105Z,102312.69
2023-02-09T19:07:14.633Z,102326.89
2023-02-09T19:09:46.586Z,102337.27
2023-02-09T19:12:15.466Z,102340.73
2023-02-09T19:14:46.249Z,102347.58
2023-02-09T19:17:20.360Z,102353.70
2023-02-09T19:19:49.422Z,102359.58
2023-02-09T19:22:21.230Z,102360.73
2023-02-09T19:24:52.986Z,102355.20
2023-02-09T19:27:22.997Z,102352.34
2023-02-09T19:29:55.949Z,102339.65
2023-02-09T19:32:26.560Z,102330.45
2023-02-09T19:34:55.189Z,102324.86
2023-02-09T19:37:23.760Z,102334.86
2023-02-09T19:40:05.061Z,102335.04
2023-02-09T19:42:33.988Z,102341.56
2023-02-09T19:45:02.772Z,102347.01
2023-02-09T19:47:34.217Z,102343.02
2023-02-09T19:50:03.018Z,102343.84
2023-02-09T19:52:31.700Z,102341.86
2023-02-09T19:55:00.142Z,102336.25
2023-02-09T19:57:28.781Z,102340.87
2023-02-09T19:59:57.249Z,102348.21
2023-02-09T20:02:25.733Z,102346.53
2023-02-09T20:04:54.945Z,102340.42
2023-02-09T20:07:26.315Z,102337.75
2023-02-09T20:09:57.474Z,102332.91
2023-02-09T20:12:25.976Z,102325.77
2023-02-09T20:14:58.565Z,102317.90
2023-02-09T20:17:28.450Z,102312.44
2023-02-09T20:19:56.663Z,102309.73
2023-02-09T20:22:27.982Z,102308.48
2023-02-09T20:25:01.205Z,102309.30
2023-02-09T20:27:30.682Z,102307.55
2023-02-09T20:30:02.412Z,102290.30
2023-02-09T20:32:31.176Z,102294.38
2023-02-09T20:35:00.138Z,102288.48
2023-02-09T20:37:28.822Z,102281.91
2023-02-09T20:39:57.743Z,102289.72
2023-02-09T20:42:44.982Z,102293.52
2023-02-09T20:45:36.682Z,102287.52
2023-02-09T20:48:07.115Z,102291.75
2023-02-09T20:50:39.214Z,102293.39
2023-02-09T20:53:10.495Z,102287.58
2023-02-09T20:55:38.969Z,102278.38
2023-02-09T20:58:07.620Z,102279.44
2023-02-09T21:00:36.983Z,102275.30
2023-02-09T21:03:07.111Z,102282.23
2023-02-09T21:05:36.128Z,102282.31
2023-02-09T21:08:07.063Z,102284.97
2023-02-09T21:10:36.639Z,102285.95
2023-02-09T21:13:09.603Z,102290.33
2023-02-09T21:15:43.049Z,102291.15
2023-02-09T21:18:11.819Z,102291.45
2023-02-09T21:20:40.330Z,102288.95
2023-02-09T21:23:08.869Z,102286.23
2023-02-09T21:25:37.756Z,102291.61
2023-02-09T21:28:06.928Z,102288.06
2023-02-09T21:30:36.535Z,102286.18
2023-02-09T21:33:05.222Z,102284.48
2023-02-09T21:35:33.732Z,102283.85
2023-02-09T21:38:10.367Z,102284.02
2023-02-09T21:40:42.218Z,102284.70
2023-02-09T21:43:10.668Z,102285.38
2023-02-09T21:45:40.058Z,102287.52
2023-02-09T21:48:08.662Z,102285.79
2023-02-09T21:50:39.832Z,102281.91
2023-02-09T21:53:08.457Z,102275.26
2023-02-09T21:55:36.846Z,102279.23
2023-02-09T21:58:07.544Z,102275.30
2023-02-09T22:00:36.119Z,102277.84
2023-02-09T22:03:04.772Z,102278.30
2023-02-09T22:05:33.020Z,102274.89
2023-02-09T22:08:01.804Z,102270.89
2023-02-09T22:10:33.198Z,102271.64
2023-02-09T22:13:08.655Z,102270.10
2023-02-09T22:15:40.917Z,102268.48
2023-02-09T22:18:10.735Z,102274.88
2023-02-09T22:20:43.858Z,102277.40
2023-02-09T22:23:12.306Z,102276.45
2023-02-09T22:25:40.840Z,102274.39
2023-02-09T22:28:09.440Z,102276.51
2023-02-09T22:30:38.165Z,102275.46
2023-02-09T22:33:06.764Z,102274.84
2023-02-09T22:35:35.359Z,102273.70
2023-02-09T22:38:04.122Z,102272.86
2023-02-09T22:40:32.781Z,102276.63
2023-02-09T22:43:01.285Z,102275.45
2023-02-09T22:45:29.766Z,102275.14
2023-02-09T22:47:58.335Z,102276.73
2023-02-09T22:50:26.799Z,102274.73
2023-02-09T22:52:55.620Z,102272.01
2023-02-09T22:55:24.520Z,102269.49
2023-02-09T22:57:52.755Z,102270.34
2023-02-09T23:00:21.208Z,102269.77
2023-02-09T23:02:49.475Z,102269.23
2023-02-09T23:05:18.043Z,102262.83
2023-02-09T23:07:46.542Z,102268.95
2023-02-09T23:10:19.836Z,102267.87
2023-02-09T23:12:48.398Z,102269.00
2023-02-09T23:15:16.809Z,102267.21
2023-02-09T23:17:44.944Z,102269.81
2023-02-09T23:20:13.359Z,102269.88
2023-02-09T23:22:44.628Z,102277.99
2023-02-09T23:25:13.154Z,102280.77
2023-02-09T23:27:41.713Z,102280.36
2023-02-09T23:30:10.928Z,102283.63
2023-02-09T23:32:39.551Z,102278.71
2023-02-09T23:35:08.458Z,102281.25
2023-02-09T23:37:38.097Z,102282.14
2023-02-09T23:40:07.713Z,102274.89
2023-02-09T23:42:36.067Z,102272.02
2023-02-09T23:45:06.485Z,102268.69
2023-02-09T23:47:34.775Z,102267.95
2023-02-09T23:50:03.080Z,102269.11
2023-02-09T23:52:31.606Z,102264.30
2023-02-09T23:55:02.843Z,102259.98
2023-02-09T23:57:31.422Z,102260.70
2023-02-09T23:59:59.789Z,102262.10
